createdAt,value
2023-02-04T00:00:54.916Z,3.05
2023-02-04T00:05:56.622Z,2.30
2023-02-04T00:10:58.223Z,1.58
2023-02-04T00:15:59.931Z,1.27
2023-02-04T00:21:01.741Z,0.90
2023-02-04T00:26:03.727Z,1.33
2023-02-04T00:31:05.632Z,1.20
2023-02-04T00:36:08.363Z,1.00
2023-02-04T00:41:09.999Z,0.80
2023-02-04T00:46:11.764Z,1.10
2023-02-04T00:51:13.519Z,0.88
2023-02-04T00:56:15.120Z,1.00
2023-02-04T01:01:17.576Z,1.23
2023-02-04T01:06:19.288Z,1.13
2023-02-04T01:11:20.989Z,1.08
2023-02-04T01:16:23.166Z,1.15
2023-02-04T01:21:25.287Z,1.17
2023-02-04T01:26:26.878Z,1.80
2023-02-04T01:31:31.478Z,1.40
2023-02-04T01:36:33.214Z,1.33
2023-02-04T01:41:34.864Z,1.25
2023-02-04T01:46:37.539Z,1.52
2023-02-04T01:51:39.898Z,1.20
2023-02-04T01:56:45.792Z,2.00
2023-02-04T02:01:50.224Z,1.58
2023-02-04T02:06:55.525Z,1.20
2023-02-04T02:11:57.823Z,1.30
2023-02-04T02:17:01.086Z,1.30
2023-02-04T02:22:13.337Z,1.60
2023-02-04T02:27:15.163Z,1.63
2023-02-04T02:32:17.542Z,1.43
2023-02-04T02:37:20.150Z,2.10
2023-02-04T02:42:21.915Z,1.75
2023-02-04T02:47:24.249Z,1.67
2023-02-04T02:52:25.876Z,1.58
2023-02-04T02:57:27.611Z,1.52
2023-02-04T03:02:29.619Z,1.65
2023-02-04T03:07:31.750Z,1.60
2023-02-04T03:12:33.970Z,1.65
2023-02-04T03:17:36.370Z,1.80
2023-02-04T03:22:38.128Z,1.60
2023-02-04T03:27:39.841Z,1.98
2023-02-04T03:32:41.833Z,2.00
2023-02-04T03:37:44.041Z,1.58
2023-02-04T03:42:45.645Z,2.13
2023-02-04T03:47:47.254Z,1.53
2023-02-04T03:52:50.193Z,1.25
2023-02-04T03:57:53.018Z,1.52
2023-02-04T04:02:54.705Z,1.60
2023-02-04T04:07:56.331Z,1.38
2023-02-04T04:12:57.991Z,1.52
2023-02-04T04:17:59.632Z,1.40
2023-02-04T04:23:01.268Z,1.70
2023-02-04T04:28:02.965Z,1.50
2023-02-04T04:33:04.627Z,1.47
2023-02-04T04:38:06.270Z,1.40
2023-02-04T04:43:07.936Z,1.50
2023-02-04T04:48:09.545Z,1.85
2023-02-04T04:53:11.462Z,2.03
2023-02-04T04:58:13.112Z,1.95
2023-02-04T05:03:14.709Z,2.22
2023-02-04T05:08:17.083Z,2.30
2023-02-04T05:13:18.762Z,2.50
2023-02-04T05:18:20.351Z,2.45
2023-02-04T05:23:21.949Z,2.13
2023-02-04T05:28:23.573Z,1.95
2023-02-04T05:33:25.160Z,1.77
2023-02-04T05:38:26.754Z,2.13
2023-02-04T05:43:28.369Z,2.13
2023-02-04T05:48:29.954Z,1.63
2023-02-04T05:53:32.046Z,1.77
2023-02-04T05:58:33.766Z,2.17
2023-02-04T06:03:35.529Z,1.88
2023-02-04T06:08:37.179Z,2.17
2023-02-04T06:13:38.834Z,1.85
2023-02-04T06:18:40.447Z,1.50
2023-02-04T06:23:42.063Z,1.60
2023-02-04T06:28:43.673Z,1.90
2023-02-04T06:33:45.273Z,1.80
2023-02-04T06:38:46.872Z,1.95
2023-02-04T06:43:48.474Z,2.10
2023-02-04T06:48:50.066Z,2.22
2023-02-04T06:53:52.578Z,1.70
2023-02-04T06:58:54.195Z,2.00
2023-02-04T07:03:55.808Z,2.40
2023-02-04T07:08:57.451Z,2.63
2023-02-04T07:13:59.086Z,1.90
2023-02-04T07:19:00.736Z,2.10
2023-02-04T07:24:02.542Z,1.67
2023-02-04T07:29:04.170Z,2.22
2023-02-04T07:34:06.518Z,1.95
2023-02-04T07:39:08.448Z,2.63
2023-02-04T07:44:10.082Z,2.00
2023-02-04T07:49:11.769Z,2.10
2023-02-04T07:54:13.415Z,2.20
2023-02-04T07:59:15.188Z,2.20
2023-02-04T08:04:16.801Z,2.50
2023-02-04T08:09:18.390Z,2.07
2023-02-04T08:14:19.978Z,1.73
2023-02-04T08:19:21.828Z,1.80
2023-02-04T08:24:23.418Z,2.40
2023-02-04T08:29:28.195Z,2.42
2023-02-04T08:34:30.299Z,2.03
2023-02-04T08:39:33.020Z,2.30
2023-02-04T08:44:34.655Z,1.70
2023-02-04T08:49:36.959Z,1.95
2023-02-04T08:54:38.576Z,3.03
2023-02-04T08:59:40.224Z,2.55
2023-02-04T09:04:41.850Z,2.65
2023-02-04T09:09:43.465Z,1.90
2023-02-04T09:14:45.051Z,2.10
2023-02-04T09:19:46.658Z,2.67
2023-02-04T09:24:48.304Z,2.33
2023-02-04T09:29:49.897Z,2.08
2023-02-04T09:34:51.922Z,2.53
2023-02-04T09:39:54.841Z,2.83
2023-02-04T09:44:57.232Z,2.38
2023-02-04T09:49:58.923Z,2.38
2023-02-04T09:55:00.555Z,1.90
2023-02-04T10:00:02.146Z,2.28
2023-02-04T10:05:07.101Z,2.17
2023-02-04T10:10:18.572Z,2.40
2023-02-04T10:15:20.821Z,2.25
2023-02-04T10:20:24.852Z,2.00
2023-02-04T10:25:26.873Z,2.40
2023-02-04T10:30:33.803Z,1.83
2023-02-04T10:35:47.951Z,1.83
2023-02-04T10:41:01.212Z,2.33
2023-02-04T10:46:03.969Z,2.65
2023-02-04T10:51:05.623Z,1.75
2023-02-04T10:56:16.060Z,1.60
2023-02-04T11:01:17.735Z,1.67
2023-02-04T11:06:24.230Z,1.67
2023-02-04T11:11:26.566Z,2.33
2023-02-04T11:16:32.885Z,2.13
2023-02-04T11:21:34.460Z,2.30
2023-02-04T11:26:43.716Z,2.00
2023-02-04T11:31:59.026Z,1.70
2023-02-04T11:37:12.257Z,1.85
2023-02-04T11:42:41.610Z,1.88
2023-02-04T11:47:43.892Z,1.77
2023-02-04T11:52:45.706Z,2.53
2023-02-04T11:57:52.590Z,1.67
2023-02-04T12:03:04.614Z,2.08
2023-02-04T12:08:34.664Z,1.95
2023-02-04T12:13:49.536Z,1.92
2023-02-04T12:18:51.376Z,1.75
2023-02-04T12:23:52.984Z,1.98
2023-02-04T12:28:54.588Z,1.90
2023-02-04T12:33:56.292Z,1.48
2023-02-04T12:39:00.969Z,2.15
2023-02-04T12:44:02.997Z,1.70
2023-02-04T12:49:04.613Z,1.20
2023-02-04T12:54:06.279Z,1.23
2023-02-04T12:59:07.868Z,1.60
2023-02-04T13:04:09.456Z,2.00
2023-02-04T13:09:11.102Z,2.35
2023-02-04T13:14:12.749Z,1.83
2023-02-04T13:19:14.333Z,1.70
2023-02-04T13:24:16.303Z,1.58
2023-02-04T13:29:18.124Z,1.52
2023-02-04T13:34:19.940Z,1.30
2023-02-04T13:39:21.535Z,1.80
2023-02-04T13:44:23.201Z,1.50
2023-02-04T13:49:25.018Z,1.50
2023-02-04T13:54:26.672Z,2.05
2023-02-04T13:59:28.269Z,1.60
2023-02-04T14:04:29.916Z,1.25
2023-02-04T14:09:31.530Z,1.52
2023-02-04T14:14:33.182Z,1.30
2023-02-04T14:19:34.782Z,1.25
2023-02-04T14:24:36.730Z,2.10
2023-02-04T14:29:38.375Z,1.38
2023-02-04T14:34:39.983Z,1.90
2023-02-04T14:39:41.588Z,2.00
2023-02-04T14:44:43.250Z,1.90
2023-02-04T14:49:44.898Z,1.20
2023-02-04T14:54:46.484Z,2.20
2023-02-04T14:59:48.086Z,1.38
2023-02-04T15:04:49.732Z,0.93
2023-02-04T15:09:51.771Z,1.20
2023-02-04T15:14:53.446Z,1.27
2023-02-04T15:19:55.049Z,1.35
2023-02-04T15:24:56.687Z,1.30
2023-02-04T15:29:58.329Z,1.60
2023-02-04T15:34:59.950Z,1.55
2023-02-04T15:40:01.723Z,2.57
2023-02-04T15:45:04.570Z,2.53
2023-02-04T15:50:08.747Z,2.38
2023-02-04T15:55:10.457Z,6.50
2023-02-04T16:00:12.646Z,2.47
2023-02-04T16:05:14.361Z,2.55
2023-02-04T16:10:18.358Z,3.13
2023-02-04T16:15:20.049Z,4.87
2023-02-04T16:20:21.650Z,5.50
2023-02-04T16:25:23.909Z,3.08
2023-02-04T16:30:25.543Z,2.92
2023-02-04T16:35:27.408Z,2.45
2023-02-04T16:40:29.074Z,2.95
2023-02-04T16:45:30.877Z,2.92
2023-02-04T16:50:32.804Z,2.63
2023-02-04T16:55:35.103Z,3.00
2023-02-04T17:00:38.730Z,2.07
2023-02-04T17:05:41.184Z,2.78
2023-02-04T17:11:02.048Z,2.25
2023-02-04T17:16:03.823Z,2.30
2023-02-04T17:21:05.605Z,3.20
2023-02-04T17:26:07.228Z,2.85
2023-02-04T17:31:08.976Z,2.80
2023-02-04T17:36:11.226Z,3.00
2023-02-04T17:41:12.887Z,3.05
2023-02-04T17:46:14.487Z,3.63
2023-02-04T17:51:16.274Z,2.92
2023-02-04T17:56:17.940Z,3.90
2023-02-04T18:01:21.947Z,2.95
2023-02-04T18:06:29.872Z,2.70
2023-02-04T18:11:37.807Z,2.22
2023-02-04T18:16:40.141Z,2.43
2023-02-04T18:21:41.770Z,2.08
2023-02-04T18:26:49.382Z,1.70
2023-02-04T18:31:57.123Z,2.13
2023-02-04T18:36:58.772Z,2.08
2023-02-04T18:42:00.380Z,1.97
2023-02-04T18:47:09.696Z,2.37
2023-02-04T18:52:19.473Z,2.10
2023-02-04T18:57:35.680Z,2.83
2023-02-04T19:02:49.371Z,3.00
2023-02-04T19:08:13.557Z,2.47
2023-02-04T19:13:25.715Z,2.03
2023-02-04T19:18:32.667Z,2.53
2023-02-04T19:23:36.266Z,2.47
2023-02-04T19:28:38.000Z,2.53
2023-02-04T19:33:45.427Z,2.63
2023-02-04T19:38:48.516Z,2.60
2023-02-04T19:43:50.128Z,2.25
2023-02-04T19:48:52.124Z,2.28
2023-02-04T19:54:20.147Z,2.73
2023-02-04T19:59:28.806Z,3.40
2023-02-04T20:04:36.296Z,2.92
2023-02-04T20:09:37.943Z,2.57
2023-02-04T20:14:46.250Z,2.80
2023-02-04T20:19:50.023Z,2.60
2023-02-04T20:25:05.377Z,2.33
2023-02-04T20:30:11.800Z,2.65
2023-02-04T20:35:13.588Z,2.57
2023-02-04T20:40:22.570Z,3.23
2023-02-04T20:45:41.780Z,2.40
2023-02-04T20:50:52.073Z,2.55
2023-02-04T20:55:53.692Z,2.83
2023-02-04T21:00:56.119Z,2.58
2023-02-04T21:05:59.672Z,2.58
2023-02-04T21:11:02.285Z,2.43
2023-02-04T21:16:04.572Z,2.25
2023-02-04T21:21:08.064Z,2.43
2023-02-04T21:26:09.658Z,2.15
2023-02-04T21:31:12.028Z,2.40
2023-02-04T21:36:13.805Z,2.10
2023-02-04T21:41:16.574Z,2.23
2023-02-04T21:46:18.973Z,2.20
2023-02-04T21:51:20.618Z,1.77
2023-02-04T21:56:22.295Z,1.70
2023-02-04T22:01:23.935Z,1.60
2023-02-04T22:06:25.592Z,2.00
2023-02-04T22:11:27.171Z,1.90
2023-02-04T22:16:28.855Z,2.08
2023-02-04T22:21:30.531Z,1.90
2023-02-04T22:26:32.108Z,1.98
2023-02-04T22:31:33.842Z,1.80
2023-02-04T22:36:35.503Z,1.77
2023-02-04T22:41:37.111Z,1.87
2023-02-04T22:46:38.746Z,1.80
2023-02-04T22:51:40.381Z,1.83
2023-02-04T22:56:41.995Z,1.70
2023-02-04T23:01:43.693Z,1.58
2023-02-04T23:06:45.418Z,1.57
2023-02-04T23:11:47.060Z,1.50
2023-02-04T23:16:49.158Z,1.40
2023-02-04T23:21:50.753Z,1.70
2023-02-04T23:26:52.401Z,2.13
2023-02-04T23:31:54.840Z,2.05
2023-02-04T23:36:56.511Z,1.70
2023-02-04T23:41:58.446Z,1.63
2023-02-04T23:47:00.089Z,1.53
2023-02-04T23:52:02.017Z,1.77
2023-02-04T23:57:03.942Z,2.45
